sensor_id;sensor_type;location;lat;lon;timestamp;P1;durP1;ratioP1;P2;durP2;ratioP2
70467;SDS011;57934;51.532;7.684;2023-02-15T00:01:35;19.58;;;11.60;;
70467;SDS011;57934;51.532;7.684;2023-02-15T00:04:02;19.33;;;12.38;;
70467;SDS011;57934;51.532;7.684;2023-02-15T00:06:28;23.85;;;12.70;;
70467;SDS011;57934;51.532;7.684;2023-02-15T00:08:55;22.95;;;12.48;;
70467;SDS011;57934;51.532;7.684;2023-02-15T00:11:21;20.35;;;12.10;;
70467;SDS011;57934;51.532;7.684;2023-02-15T00:16:33;21.70;;;12.90;;
70467;SDS011;57934;51.532;7.684;2023-02-15T00:18:59;24.23;;;13.82;;
70467;SDS011;57934;51.532;7.684;2023-02-15T00:21:27;22.85;;;11.93;;
70467;SDS011;57934;51.532;7.684;2023-02-15T00:23:58;19.50;;;12.25;;
70467;SDS011;57934;51.532;7.684;2023-02-15T00:26:25;22.15;;;12.88;;
70467;SDS011;57934;51.532;7.684;2023-02-15T00:28:52;20.63;;;12.25;;
70467;SDS011;57934;51.532;7.684;2023-02-15T00:31:18;20.52;;;13.05;;
70467;SDS011;57934;51.532;7.684;2023-02-15T00:33:45;20.60;;;12.20;;
70467;SDS011;57934;51.532;7.684;2023-02-15T00:36:11;21.88;;;12.82;;
70467;SDS011;57934;51.532;7.684;2023-02-15T00:38:38;23.52;;;13.30;;
70467;SDS011;57934;51.532;7.684;2023-02-15T00:41:05;26.52;;;13.23;;
70467;SDS011;57934;51.532;7.684;2023-02-15T00:43:32;19.80;;;11.80;;
70467;SDS011;57934;51.532;7.684;2023-02-15T00:46:01;22.13;;;12.30;;
70467;SDS011;57934;51.532;7.684;2023-02-15T00:48:28;20.23;;;12.05;;
70467;SDS011;57934;51.532;7.684;2023-02-15T00:50:55;23.67;;;12.80;;
70467;SDS011;57934;51.532;7.684;2023-02-15T00:53:22;22.38;;;12.45;;
70467;SDS011;57934;51.532;7.684;2023-02-15T00:55:49;24.65;;;13.43;;
70467;SDS011;57934;51.532;7.684;2023-02-15T00:58:15;25.33;;;13.48;;
70467;SDS011;57934;51.532;7.684;2023-02-15T01:00:42;18.30;;;11.98;;
70467;SDS011;57934;51.532;7.684;2023-02-15T01:03:10;25.15;;;13.07;;
70467;SDS011;57934;51.532;7.684;2023-02-15T01:05:36;23.02;;;13.48;;
70467;SDS011;57934;51.532;7.684;2023-02-15T01:08:03;25.10;;;13.02;;
70467;SDS011;57934;51.532;7.684;2023-02-15T01:10:29;22.83;;;13.15;;
70467;SDS011;57934;51.532;7.684;2023-02-15T01:12:55;21.55;;;12.23;;
70467;SDS011;57934;51.532;7.684;2023-02-15T01:15:22;20.50;;;12.73;;
70467;SDS011;57934;51.532;7.684;2023-02-15T01:17:48;21.98;;;13.32;;
70467;SDS011;57934;51.532;7.684;2023-02-15T01:22:44;22.15;;;12.60;;
70467;SDS011;57934;51.532;7.684;2023-02-15T01:25:11;19.17;;;12.20;;
70467;SDS011;57934;51.532;7.684;2023-02-15T01:27:38;23.27;;;13.27;;
70467;SDS011;57934;51.532;7.684;2023-02-15T01:30:05;25.25;;;13.98;;
70467;SDS011;57934;51.532;7.684;2023-02-15T01:32:32;22.83;;;12.77;;
70467;SDS011;57934;51.532;7.684;2023-02-15T01:34:58;24.02;;;13.23;;
70467;SDS011;57934;51.532;7.684;2023-02-15T01:37:24;24.05;;;13.30;;
70467;SDS011;57934;51.532;7.684;2023-02-15T01:39:50;24.13;;;13.57;;
70467;SDS011;57934;51.532;7.684;2023-02-15T01:42:21;26.75;;;13.95;;
70467;SDS011;57934;51.532;7.684;2023-02-15T01:44:53;25.27;;;14.02;;
70467;SDS011;57934;51.532;7.684;2023-02-15T01:53:01;28.30;;;14.02;;
70467;SDS011;57934;51.532;7.684;2023-02-15T01:55:30;24.63;;;14.20;;
70467;SDS011;57934;51.532;7.684;2023-02-15T01:58:02;23.30;;;13.23;;
70467;SDS011;57934;51.532;7.684;2023-02-15T02:00:29;28.27;;;14.45;;
70467;SDS011;57934;51.532;7.684;2023-02-15T02:02:55;30.10;;;14.70;;
70467;SDS011;57934;51.532;7.684;2023-02-15T02:05:25;23.90;;;13.93;;
70467;SDS011;57934;51.532;7.684;2023-02-15T02:07:51;25.92;;;14.60;;
70467;SDS011;57934;51.532;7.684;2023-02-15T02:10:22;27.48;;;14.43;;
70467;SDS011;57934;51.532;7.684;2023-02-15T02:12:50;28.10;;;14.20;;
70467;SDS011;57934;51.532;7.684;2023-02-15T02:15:20;26.88;;;14.65;;
70467;SDS011;57934;51.532;7.684;2023-02-15T02:23:34;24.65;;;13.90;;
70467;SDS011;57934;51.532;7.684;2023-02-15T02:32:32;27.02;;;14.75;;
70467;SDS011;57934;51.532;7.684;2023-02-15T02:35:30;31.05;;;15.07;;
70467;SDS011;57934;51.532;7.684;2023-02-15T02:38:11;28.67;;;14.50;;
70467;SDS011;57934;51.532;7.684;2023-02-15T02:43:59;26.35;;;14.93;;
70467;SDS011;57934;51.532;7.684;2023-02-15T02:46:35;28.95;;;15.85;;
70467;SDS011;57934;51.532;7.684;2023-02-15T02:49:09;32.60;;;16.70;;
70467;SDS011;57934;51.532;7.684;2023-02-15T02:51:35;28.90;;;15.05;;
70467;SDS011;57934;51.532;7.684;2023-02-15T02:54:03;27.42;;;15.18;;
70467;SDS011;57934;51.532;7.684;2023-02-15T02:56:41;27.67;;;15.00;;
70467;SDS011;57934;51.532;7.684;2023-02-15T02:59:53;29.20;;;15.07;;
70467;SDS011;57934;51.532;7.684;2023-02-15T03:02:05;29.35;;;15.23;;
70467;SDS011;57934;51.532;7.684;2023-02-15T03:04:39;29.90;;;15.77;;
70467;SDS011;57934;51.532;7.684;2023-02-15T03:07:12;29.67;;;15.50;;
70467;SDS011;57934;51.532;7.684;2023-02-15T03:09:49;28.25;;;15.88;;
70467;SDS011;57934;51.532;7.684;2023-02-15T03:12:26;31.92;;;16.05;;
70467;SDS011;57934;51.532;7.684;2023-02-15T03:14:59;29.20;;;15.93;;
70467;SDS011;57934;51.532;7.684;2023-02-15T03:17:48;28.10;;;15.07;;
70467;SDS011;57934;51.532;7.684;2023-02-15T03:20:26;28.73;;;15.43;;
70467;SDS011;57934;51.532;7.684;2023-02-15T03:23:04;33.08;;;16.70;;
70467;SDS011;57934;51.532;7.684;2023-02-15T03:25:40;33.03;;;16.23;;
70467;SDS011;57934;51.532;7.684;2023-02-15T03:28:15;33.67;;;17.10;;
70467;SDS011;57934;51.532;7.684;2023-02-15T03:30:47;32.17;;;16.33;;
70467;SDS011;57934;51.532;7.684;2023-02-15T03:33:17;30.65;;;15.95;;
70467;SDS011;57934;51.532;7.684;2023-02-15T03:38:34;29.90;;;15.60;;
70467;SDS011;57934;51.532;7.684;2023-02-15T03:41:07;31.85;;;16.60;;
70467;SDS011;57934;51.532;7.684;2023-02-15T03:46:16;29.67;;;15.57;;
70467;SDS011;57934;51.532;7.684;2023-02-15T03:48:46;32.03;;;16.13;;
70467;SDS011;57934;51.532;7.684;2023-02-15T03:51:18;30.05;;;16.13;;
70467;SDS011;57934;51.532;7.684;2023-02-15T03:54:03;29.27;;;15.38;;
70467;SDS011;57934;51.532;7.684;2023-02-15T03:56:30;28.15;;;15.68;;
70467;SDS011;57934;51.532;7.684;2023-02-15T03:58:56;33.28;;;17.33;;
70467;SDS011;57934;51.532;7.684;2023-02-15T04:01:45;32.95;;;17.15;;
70467;SDS011;57934;51.532;7.684;2023-02-15T04:04:30;36.50;;;17.65;;
70467;SDS011;57934;51.532;7.684;2023-02-15T04:07:02;32.80;;;16.85;;
70467;SDS011;57934;51.532;7.684;2023-02-15T04:09:29;33.50;;;16.60;;
70467;SDS011;57934;51.532;7.684;2023-02-15T04:12:14;28.40;;;16.65;;
70467;SDS011;57934;51.532;7.684;2023-02-15T04:14:40;35.70;;;17.95;;
70467;SDS011;57934;51.532;7.684;2023-02-15T04:17:24;31.40;;;17.35;;
70467;SDS011;57934;51.532;7.684;2023-02-15T04:19:50;31.52;;;17.83;;
70467;SDS011;57934;51.532;7.684;2023-02-15T04:22:35;34.75;;;17.75;;
70467;SDS011;57934;51.532;7.684;2023-02-15T04:25:19;32.28;;;16.95;;
70467;SDS011;57934;51.532;7.684;2023-02-15T04:27:50;32.78;;;16.90;;
70467;SDS011;57934;51.532;7.684;2023-02-15T04:30:17;27.95;;;16.30;;
70467;SDS011;57934;51.532;7.684;2023-02-15T04:32:46;31.10;;;17.98;;
70467;SDS011;57934;51.532;7.684;2023-02-15T04:35:12;33.30;;;17.90;;
70467;SDS011;57934;51.532;7.684;2023-02-15T04:37:39;30.85;;;17.67;;
70467;SDS011;57934;51.532;7.684;2023-02-15T04:40:08;32.38;;;17.23;;
70467;SDS011;57934;51.532;7.684;2023-02-15T04:42:37;33.03;;;17.52;;
70467;SDS011;57934;51.532;7.684;2023-02-15T04:45:03;35.40;;;17.58;;
70467;SDS011;57934;51.532;7.684;2023-02-15T04:47:30;33.50;;;17.58;;
70467;SDS011;57934;51.532;7.684;2023-02-15T04:49:56;34.33;;;16.75;;
70467;SDS011;57934;51.532;7.684;2023-02-15T04:52:22;30.88;;;17.38;;
70467;SDS011;57934;51.532;7.684;2023-02-15T04:54:48;29.08;;;16.52;;
70467;SDS011;57934;51.532;7.684;2023-02-15T04:57:14;37.13;;;18.05;;
70467;SDS011;57934;51.532;7.684;2023-02-15T04:59:40;32.67;;;16.75;;
70467;SDS011;57934;51.532;7.684;2023-02-15T05:02:06;30.20;;;16.65;;
70467;SDS011;57934;51.532;7.684;2023-02-15T05:04:32;34.13;;;17.48;;
70467;SDS011;57934;51.532;7.684;2023-02-15T05:06:58;28.80;;;16.58;;
70467;SDS011;57934;51.532;7.684;2023-02-15T05:09:24;37.60;;;18.38;;
70467;SDS011;57934;51.532;7.684;2023-02-15T05:11:50;34.60;;;17.05;;
70467;SDS011;57934;51.532;7.684;2023-02-15T05:14:16;31.48;;;17.70;;
70467;SDS011;57934;51.532;7.684;2023-02-15T05:16:42;33.55;;;17.35;;
70467;SDS011;57934;51.532;7.684;2023-02-15T05:19:08;32.28;;;17.77;;
70467;SDS011;57934;51.532;7.684;2023-02-15T05:21:34;31.45;;;18.30;;
70467;SDS011;57934;51.532;7.684;2023-02-15T05:24:00;28.70;;;16.98;;
70467;SDS011;57934;51.532;7.684;2023-02-15T05:26:26;33.35;;;18.27;;
70467;SDS011;57934;51.532;7.684;2023-02-15T05:29:10;35.75;;;18.73;;
70467;SDS011;57934;51.532;7.684;2023-02-15T05:31:37;46.35;;;21.58;;
70467;SDS011;57934;51.532;7.684;2023-02-15T05:34:03;38.30;;;20.55;;
70467;SDS011;57934;51.532;7.684;2023-02-15T05:36:29;40.80;;;21.13;;
70467;SDS011;57934;51.532;7.684;2023-02-15T05:38:55;33.47;;;18.58;;
70467;SDS011;57934;51.532;7.684;2023-02-15T05:41:21;37.95;;;19.40;;
70467;SDS011;57934;51.532;7.684;2023-02-15T05:43:47;38.60;;;20.58;;
70467;SDS011;57934;51.532;7.684;2023-02-15T05:46:13;35.22;;;19.63;;
70467;SDS011;57934;51.532;7.684;2023-02-15T05:48:39;34.55;;;19.77;;
70467;SDS011;57934;51.532;7.684;2023-02-15T05:51:06;34.63;;;19.85;;
70467;SDS011;57934;51.532;7.684;2023-02-15T05:53:36;38.10;;;18.67;;
70467;SDS011;57934;51.532;7.684;2023-02-15T05:56:04;35.15;;;19.85;;
70467;SDS011;57934;51.532;7.684;2023-02-15T05:58:40;38.90;;;21.00;;
70467;SDS011;57934;51.532;7.684;2023-02-15T06:01:10;34.25;;;19.08;;
70467;SDS011;57934;51.532;7.684;2023-02-15T06:03:48;34.65;;;19.42;;
70467;SDS011;57934;51.532;7.684;2023-02-15T06:06:14;32.55;;;19.02;;
70467;SDS011;57934;51.532;7.684;2023-02-15T06:08:40;35.50;;;18.92;;
70467;SDS011;57934;51.532;7.684;2023-02-15T06:11:07;35.40;;;20.05;;
70467;SDS011;57934;51.532;7.684;2023-02-15T06:13:34;40.13;;;19.33;;
70467;SDS011;57934;51.532;7.684;2023-02-15T06:16:00;38.05;;;19.63;;
70467;SDS011;57934;51.532;7.684;2023-02-15T06:18:26;38.53;;;19.50;;
70467;SDS011;57934;51.532;7.684;2023-02-15T06:20:52;34.20;;;19.15;;
70467;SDS011;57934;51.532;7.684;2023-02-15T06:23:18;33.70;;;19.45;;
70467;SDS011;57934;51.532;7.684;2023-02-15T06:25:45;35.40;;;19.48;;
70467;SDS011;57934;51.532;7.684;2023-02-15T06:28:11;36.33;;;18.98;;
70467;SDS011;57934;51.532;7.684;2023-02-15T06:30:38;34.85;;;17.65;;
70467;SDS011;57934;51.532;7.684;2023-02-15T06:33:04;36.15;;;19.05;;
70467;SDS011;57934;51.532;7.684;2023-02-15T06:35:30;33.38;;;19.27;;
70467;SDS011;57934;51.532;7.684;2023-02-15T06:37:56;37.13;;;19.20;;
70467;SDS011;57934;51.532;7.684;2023-02-15T06:40:22;38.63;;;20.98;;
70467;SDS011;57934;51.532;7.684;2023-02-15T06:42:48;33.13;;;18.70;;
70467;SDS011;57934;51.532;7.684;2023-02-15T06:45:14;31.42;;;17.77;;
70467;SDS011;57934;51.532;7.684;2023-02-15T06:47:40;34.58;;;18.80;;
70467;SDS011;57934;51.532;7.684;2023-02-15T06:50:06;34.80;;;18.58;;
70467;SDS011;57934;51.532;7.684;2023-02-15T06:52:33;35.97;;;18.83;;
70467;SDS011;57934;51.532;7.684;2023-02-15T06:54:59;36.53;;;18.48;;
70467;SDS011;57934;51.532;7.684;2023-02-15T06:57:25;33.60;;;17.30;;
70467;SDS011;57934;51.532;7.684;2023-02-15T06:59:51;36.03;;;18.98;;
70467;SDS011;57934;51.532;7.684;2023-02-15T07:02:18;36.58;;;19.25;;
70467;SDS011;57934;51.532;7.684;2023-02-15T07:04:44;33.25;;;18.88;;
70467;SDS011;57934;51.532;7.684;2023-02-15T07:07:11;35.88;;;18.90;;
70467;SDS011;57934;51.532;7.684;2023-02-15T07:09:38;35.15;;;19.70;;
70467;SDS011;57934;51.532;7.684;2023-02-15T07:12:05;35.58;;;18.40;;
70467;SDS011;57934;51.532;7.684;2023-02-15T07:14:50;44.08;;;19.83;;
70467;SDS011;57934;51.532;7.684;2023-02-15T07:17:17;34.33;;;19.25;;
70467;SDS011;57934;51.532;7.684;2023-02-15T07:19:43;37.00;;;19.27;;
70467;SDS011;57934;51.532;7.684;2023-02-15T07:22:09;35.63;;;18.80;;
70467;SDS011;57934;51.532;7.684;2023-02-15T07:24:35;37.05;;;19.02;;
70467;SDS011;57934;51.532;7.684;2023-02-15T07:27:01;36.42;;;19.30;;
70467;SDS011;57934;51.532;7.684;2023-02-15T07:29:27;33.97;;;17.50;;
70467;SDS011;57934;51.532;7.684;2023-02-15T07:31:53;32.42;;;19.10;;
70467;SDS011;57934;51.532;7.684;2023-02-15T07:34:19;35.38;;;19.15;;
70467;SDS011;57934;51.532;7.684;2023-02-15T07:36:45;35.20;;;20.08;;
70467;SDS011;57934;51.532;7.684;2023-02-15T07:39:11;36.38;;;19.30;;
70467;SDS011;57934;51.532;7.684;2023-02-15T07:41:37;35.67;;;19.33;;
70467;SDS011;57934;51.532;7.684;2023-02-15T07:44:13;35.60;;;18.92;;
70467;SDS011;57934;51.532;7.684;2023-02-15T07:46:40;33.90;;;19.63;;
70467;SDS011;57934;51.532;7.684;2023-02-15T07:49:06;31.38;;;17.38;;
70467;SDS011;57934;51.532;7.684;2023-02-15T07:51:32;34.03;;;18.50;;
70467;SDS011;57934;51.532;7.684;2023-02-15T07:53:58;31.33;;;19.02;;
70467;SDS011;57934;51.532;7.684;2023-02-15T07:56:24;33.70;;;18.70;;
70467;SDS011;57934;51.532;7.684;2023-02-15T07:58:50;30.38;;;17.63;;
70467;SDS011;57934;51.532;7.684;2023-02-15T08:01:17;28.13;;;16.58;;
70467;SDS011;57934;51.532;7.684;2023-02-15T08:03:55;33.50;;;18.33;;
70467;SDS011;57934;51.532;7.684;2023-02-15T08:06:25;29.00;;;16.23;;
70467;SDS011;57934;51.532;7.684;2023-02-15T08:08:52;28.52;;;15.98;;
70467;SDS011;57934;51.532;7.684;2023-02-15T08:11:26;27.85;;;16.98;;
70467;SDS011;57934;51.532;7.684;2023-02-15T08:19:04;30.20;;;16.20;;
70467;SDS011;57934;51.532;7.684;2023-02-15T08:21:37;26.77;;;15.80;;
70467;SDS011;57934;51.532;7.684;2023-02-15T08:24:05;28.05;;;15.32;;
70467;SDS011;57934;51.532;7.684;2023-02-15T08:26:33;25.30;;;15.70;;
70467;SDS011;57934;51.532;7.684;2023-02-15T08:28:59;28.67;;;16.60;;
70467;SDS011;57934;51.532;7.684;2023-02-15T08:31:26;27.45;;;16.13;;
70467;SDS011;57934;51.532;7.684;2023-02-15T08:33:53;24.55;;;16.17;;
70467;SDS011;57934;51.532;7.684;2023-02-15T08:36:22;25.33;;;16.08;;
70467;SDS011;57934;51.532;7.684;2023-02-15T08:38:50;26.35;;;16.25;;
70467;SDS011;57934;51.532;7.684;2023-02-15T08:41:17;25.95;;;16.08;;
70467;SDS011;57934;51.532;7.684;2023-02-15T08:43:48;25.80;;;15.30;;
70467;SDS011;57934;51.532;7.684;2023-02-15T08:46:17;26.23;;;15.38;;
70467;SDS011;57934;51.532;7.684;2023-02-15T08:48:44;24.77;;;15.80;;
70467;SDS011;57934;51.532;7.684;2023-02-15T08:51:14;23.35;;;15.10;;
70467;SDS011;57934;51.532;7.684;2023-02-15T08:53:43;28.10;;;15.88;;
70467;SDS011;57934;51.532;7.684;2023-02-15T08:56:11;27.48;;;15.75;;
70467;SDS011;57934;51.532;7.684;2023-02-15T08:58:38;24.35;;;15.82;;
70467;SDS011;57934;51.532;7.684;2023-02-15T09:01:10;25.15;;;16.52;;
70467;SDS011;57934;51.532;7.684;2023-02-15T09:03:37;25.50;;;16.00;;
70467;SDS011;57934;51.532;7.684;2023-02-15T09:06:04;25.30;;;16.25;;
70467;SDS011;57934;51.532;7.684;2023-02-15T09:08:31;28.02;;;16.63;;
70467;SDS011;57934;51.532;7.684;2023-02-15T09:11:04;25.13;;;16.00;;
70467;SDS011;57934;51.532;7.684;2023-02-15T09:13:49;24.92;;;16.65;;
70467;SDS011;57934;51.532;7.684;2023-02-15T09:16:16;25.27;;;14.95;;
70467;SDS011;57934;51.532;7.684;2023-02-15T09:18:43;25.98;;;16.10;;
70467;SDS011;57934;51.532;7.684;2023-02-15T09:21:10;23.02;;;15.05;;
70467;SDS011;57934;51.532;7.684;2023-02-15T09:23:41;22.80;;;15.48;;
70467;SDS011;57934;51.532;7.684;2023-02-15T09:26:09;24.00;;;15.77;;
70467;SDS011;57934;51.532;7.684;2023-02-15T09:28:38;24.95;;;16.20;;
70467;SDS011;57934;51.532;7.684;2023-02-15T09:31:11;25.20;;;15.40;;
70467;SDS011;57934;51.532;7.684;2023-02-15T09:33:42;23.52;;;14.68;;
70467;SDS011;57934;51.532;7.684;2023-02-15T09:36:16;22.92;;;15.18;;
70467;SDS011;57934;51.532;7.684;2023-02-15T09:39:06;26.48;;;16.13;;
70467;SDS011;57934;51.532;7.684;2023-02-15T09:47:56;24.08;;;13.88;;
70467;SDS011;57934;51.532;7.684;2023-02-15T09:50:49;25.83;;;15.00;;
70467;SDS011;57934;51.532;7.684;2023-02-15T09:56:14;24.92;;;15.23;;
70467;SDS011;57934;51.532;7.684;2023-02-15T09:59:27;25.25;;;14.73;;
70467;SDS011;57934;51.532;7.684;2023-02-15T10:07:15;26.25;;;14.77;;
70467;SDS011;57934;51.532;7.684;2023-02-15T10:10:02;21.77;;;14.27;;
70467;SDS011;57934;51.532;7.684;2023-02-15T10:15:23;24.00;;;14.60;;
70467;SDS011;57934;51.532;7.684;2023-02-15T10:23:32;21.45;;;14.05;;
70467;SDS011;57934;51.532;7.684;2023-02-15T10:26:20;25.20;;;13.70;;
70467;SDS011;57934;51.532;7.684;2023-02-15T10:31:35;22.88;;;13.85;;
70467;SDS011;57934;51.532;7.684;2023-02-15T10:45:04;21.75;;;13.43;;
70467;SDS011;57934;51.532;7.684;2023-02-15T10:47:53;19.35;;;11.85;;
70467;SDS011;57934;51.532;7.684;2023-02-15T10:51:13;24.23;;;13.88;;
70467;SDS011;57934;51.532;7.684;2023-02-15T11:01:27;19.70;;;11.80;;
70467;SDS011;57934;51.532;7.684;2023-02-15T11:04:10;24.55;;;13.90;;
70467;SDS011;57934;51.532;7.684;2023-02-15T11:06:57;22.05;;;12.10;;
70467;SDS011;57934;51.532;7.684;2023-02-15T11:09:38;19.38;;;12.50;;
70467;SDS011;57934;51.532;7.684;2023-02-15T11:12:12;19.95;;;12.20;;
70467;SDS011;57934;51.532;7.684;2023-02-15T11:17:24;19.15;;;12.50;;
70467;SDS011;57934;51.532;7.684;2023-02-15T11:22:47;20.00;;;10.90;;
70467;SDS011;57934;51.532;7.684;2023-02-15T11:25:17;18.33;;;11.50;;
70467;SDS011;57934;51.532;7.684;2023-02-15T11:27:45;22.33;;;11.15;;
70467;SDS011;57934;51.532;7.684;2023-02-15T11:30:14;21.25;;;11.52;;
70467;SDS011;57934;51.532;7.684;2023-02-15T11:32:46;20.85;;;12.63;;
70467;SDS011;57934;51.532;7.684;2023-02-15T11:35:50;19.63;;;11.75;;
70467;SDS011;57934;51.532;7.684;2023-02-15T11:38:21;17.90;;;11.07;;
70467;SDS011;57934;51.532;7.684;2023-02-15T11:40:54;15.43;;;9.65;;
70467;SDS011;57934;51.532;7.684;2023-02-15T11:43:28;17.77;;;10.07;;
70467;SDS011;57934;51.532;7.684;2023-02-15T11:45:59;16.80;;;10.18;;
70467;SDS011;57934;51.532;7.684;2023-02-15T11:48:25;16.85;;;10.88;;
70467;SDS011;57934;51.532;7.684;2023-02-15T11:50:52;16.65;;;10.45;;
70467;SDS011;57934;51.532;7.684;2023-02-15T11:53:19;15.07;;;8.80;;
70467;SDS011;57934;51.532;7.684;2023-02-15T11:55:50;16.20;;;10.05;;
70467;SDS011;57934;51.532;7.684;2023-02-15T12:03:59;16.60;;;10.05;;
70467;SDS011;57934;51.532;7.684;2023-02-15T12:06:33;19.38;;;10.18;;
70467;SDS011;57934;51.532;7.684;2023-02-15T12:11:37;18.33;;;11.45;;
70467;SDS011;57934;51.532;7.684;2023-02-15T12:14:05;16.20;;;10.70;;
70467;SDS011;57934;51.532;7.684;2023-02-15T12:19:52;18.20;;;10.40;;
70467;SDS011;57934;51.532;7.684;2023-02-15T12:22:03;13.18;;;8.85;;
70467;SDS011;57934;51.532;7.684;2023-02-15T12:24:37;12.48;;;8.90;;
70467;SDS011;57934;51.532;7.684;2023-02-15T12:27:14;13.13;;;8.50;;
70467;SDS011;57934;51.532;7.684;2023-02-15T12:29:44;17.33;;;8.23;;
70467;SDS011;57934;51.532;7.684;2023-02-15T12:32:17;14.85;;;8.15;;
70467;SDS011;57934;51.532;7.684;2023-02-15T12:34:47;14.15;;;7.93;;
70467;SDS011;57934;51.532;7.684;2023-02-15T12:37:25;13.73;;;7.90;;
70467;SDS011;57934;51.532;7.684;2023-02-15T12:39:55;16.38;;;7.25;;
70467;SDS011;57934;51.532;7.684;2023-02-15T12:42:22;15.90;;;7.60;;
70467;SDS011;57934;51.532;7.684;2023-02-15T12:44:54;13.77;;;7.97;;
70467;SDS011;57934;51.532;7.684;2023-02-15T12:47:22;15.98;;;8.25;;
70467;SDS011;57934;51.532;7.684;2023-02-15T12:50:34;14.35;;;7.40;;
70467;SDS011;57934;51.532;7.684;2023-02-15T12:52:48;13.10;;;7.07;;
70467;SDS011;57934;51.532;7.684;2023-02-15T12:55:24;12.80;;;7.97;;
70467;SDS011;57934;51.532;7.684;2023-02-15T13:00:33;15.80;;;7.97;;
70467;SDS011;57934;51.532;7.684;2023-02-15T13:03:00;14.43;;;7.95;;
70467;SDS011;57934;51.532;7.684;2023-02-15T13:05:38;13.77;;;8.25;;
70467;SDS011;57934;51.532;7.684;2023-02-15T13:08:14;18.30;;;9.75;;
70467;SDS011;57934;51.532;7.684;2023-02-15T13:10:52;15.48;;;7.65;;
70467;SDS011;57934;51.532;7.684;2023-02-15T13:13:19;16.50;;;7.95;;
70467;SDS011;57934;51.532;7.684;2023-02-15T13:15:48;16.05;;;8.73;;
70467;SDS011;57934;51.532;7.684;2023-02-15T13:18:19;15.32;;;8.32;;
70467;SDS011;57934;51.532;7.684;2023-02-15T13:21:09;12.65;;;7.75;;
70467;SDS011;57934;51.532;7.684;2023-02-15T13:23:37;13.43;;;7.63;;
70467;SDS011;57934;51.532;7.684;2023-02-15T13:26:09;13.05;;;7.68;;
70467;SDS011;57934;51.532;7.684;2023-02-15T13:28:48;12.43;;;7.57;;
70467;SDS011;57934;51.532;7.684;2023-02-15T13:31:19;16.55;;;7.90;;
70467;SDS011;57934;51.532;7.684;2023-02-15T13:33:48;14.00;;;7.90;;
70467;SDS011;57934;51.532;7.684;2023-02-15T13:36:27;15.10;;;7.57;;
70467;SDS011;57934;51.532;7.684;2023-02-15T14:22:00;13.13;;;7.78;;
70467;SDS011;57934;51.532;7.684;2023-02-15T14:24:43;11.95;;;7.18;;
70467;SDS011;57934;51.532;7.684;2023-02-15T14:30:00;13.02;;;7.13;;
70467;SDS011;57934;51.532;7.684;2023-02-15T14:35:09;14.13;;;7.15;;
70467;SDS011;57934;51.532;7.684;2023-02-15T14:37:42;12.85;;;6.88;;
70467;SDS011;57934;51.532;7.684;2023-02-15T14:43:29;14.50;;;7.45;;
70467;SDS011;57934;51.532;7.684;2023-02-15T14:48:49;12.80;;;7.00;;
70467;SDS011;57934;51.532;7.684;2023-02-15T14:52:05;15.38;;;7.75;;
70467;SDS011;57934;51.532;7.684;2023-02-15T14:54:04;14.00;;;7.88;;
70467;SDS011;57934;51.532;7.684;2023-02-15T14:56:30;14.52;;;7.95;;
70467;SDS011;57934;51.532;7.684;2023-02-15T14:58:56;12.95;;;7.43;;
70467;SDS011;57934;51.532;7.684;2023-02-15T15:01:31;15.57;;;8.05;;
70467;SDS011;57934;51.532;7.684;2023-02-15T15:04:01;12.88;;;7.22;;
70467;SDS011;57934;51.532;7.684;2023-02-15T15:06:32;18.05;;;7.53;;
70467;SDS011;57934;51.532;7.684;2023-02-15T15:09:00;12.73;;;7.20;;
70467;SDS011;57934;51.532;7.684;2023-02-15T15:11:38;11.68;;;6.95;;
70467;SDS011;57934;51.532;7.684;2023-02-15T15:14:04;13.70;;;7.32;;
70467;SDS011;57934;51.532;7.684;2023-02-15T15:16:35;13.25;;;7.85;;
70467;SDS011;57934;51.532;7.684;2023-02-15T15:19:56;17.15;;;8.10;;
70467;SDS011;57934;51.532;7.684;2023-02-15T15:22:18;13.15;;;7.05;;
70467;SDS011;57934;51.532;7.684;2023-02-15T15:24:50;15.05;;;8.15;;
70467;SDS011;57934;51.532;7.684;2023-02-15T15:30:49;15.65;;;8.25;;
70467;SDS011;57934;51.532;7.684;2023-02-15T15:35:23;20.38;;;8.45;;
70467;SDS011;57934;51.532;7.684;2023-02-15T15:51:59;12.57;;;8.60;;
70467;SDS011;57934;51.532;7.684;2023-02-15T15:54:27;12.85;;;7.68;;
70467;SDS011;57934;51.532;7.684;2023-02-15T15:56:55;16.02;;;7.75;;
70467;SDS011;57934;51.532;7.684;2023-02-15T15:59:27;13.25;;;8.00;;
70467;SDS011;57934;51.532;7.684;2023-02-15T16:01:56;16.60;;;8.75;;
70467;SDS011;57934;51.532;7.684;2023-02-15T16:04:31;17.70;;;9.75;;
70467;SDS011;57934;51.532;7.684;2023-02-15T16:09:59;22.67;;;8.82;;
70467;SDS011;57934;51.532;7.684;2023-02-15T16:12:36;23.17;;;8.57;;
70467;SDS011;57934;51.532;7.684;2023-02-15T16:15:13;20.65;;;9.23;;
70467;SDS011;57934;51.532;7.684;2023-02-15T16:17:41;18.45;;;8.82;;
70467;SDS011;57934;51.532;7.684;2023-02-15T16:20:23;23.45;;;8.70;;
70467;SDS011;57934;51.532;7.684;2023-02-15T16:22:54;18.02;;;8.32;;
70467;SDS011;57934;51.532;7.684;2023-02-15T16:28:14;40.10;;;10.13;;
70467;SDS011;57934;51.532;7.684;2023-02-15T16:30:44;27.42;;;9.43;;
70467;SDS011;57934;51.532;7.684;2023-02-15T16:33:13;38.42;;;10.90;;
70467;SDS011;57934;51.532;7.684;2023-02-15T16:35:53;32.97;;;10.15;;
70467;SDS011;57934;51.532;7.684;2023-02-15T16:41:08;26.38;;;9.85;;
70467;SDS011;57934;51.532;7.684;2023-02-15T16:43:36;33.60;;;10.15;;
70467;SDS011;57934;51.532;7.684;2023-02-15T16:46:06;25.83;;;9.70;;
70467;SDS011;57934;51.532;7.684;2023-02-15T16:48:51;21.42;;;10.02;;
70467;SDS011;57934;51.532;7.684;2023-02-15T16:51:21;21.98;;;9.82;;
70467;SDS011;57934;51.532;7.684;2023-02-15T16:53:50;20.80;;;10.85;;
70467;SDS011;57934;51.532;7.684;2023-02-15T16:56:22;26.67;;;12.35;;
70467;SDS011;57934;51.532;7.684;2023-02-15T16:58:53;29.23;;;12.75;;
70467;SDS011;57934;51.532;7.684;2023-02-15T17:01:21;32.75;;;11.98;;
70467;SDS011;57934;51.532;7.684;2023-02-15T17:03:50;25.10;;;11.02;;
70467;SDS011;57934;51.532;7.684;2023-02-15T17:06:35;29.48;;;14.02;;
70467;SDS011;57934;51.532;7.684;2023-02-15T17:09:05;26.45;;;12.82;;
70467;SDS011;57934;51.532;7.684;2023-02-15T17:11:42;20.90;;;11.32;;
70467;SDS011;57934;51.532;7.684;2023-02-15T17:16:45;20.08;;;11.63;;
70467;SDS011;57934;51.532;7.684;2023-02-15T17:19:15;17.92;;;10.85;;
70467;SDS011;57934;51.532;7.684;2023-02-15T17:21:55;27.17;;;11.65;;
70467;SDS011;57934;51.532;7.684;2023-02-15T17:24:25;21.65;;;10.85;;
70467;SDS011;57934;51.532;7.684;2023-02-15T17:27:00;22.55;;;12.30;;
70467;SDS011;57934;51.532;7.684;2023-02-15T17:32:14;17.38;;;8.93;;
70467;SDS011;57934;51.532;7.684;2023-02-15T17:34:48;23.10;;;9.98;;
70467;SDS011;57934;51.532;7.684;2023-02-15T17:39:48;18.33;;;9.90;;
70467;SDS011;57934;51.532;7.684;2023-02-15T17:42:14;25.10;;;9.73;;
70467;SDS011;57934;51.532;7.684;2023-02-15T17:44:40;19.45;;;9.50;;
70467;SDS011;57934;51.532;7.684;2023-02-15T17:47:06;18.52;;;10.10;;
70467;SDS011;57934;51.532;7.684;2023-02-15T17:49:32;20.83;;;9.57;;
70467;SDS011;57934;51.532;7.684;2023-02-15T17:52:02;18.88;;;9.95;;
70467;SDS011;57934;51.532;7.684;2023-02-15T17:54:29;16.35;;;9.30;;
70467;SDS011;57934;51.532;7.684;2023-02-15T17:57:14;19.88;;;9.27;;